Airfield :
LOGIN :

Register | Disclaimer

   EN    FR    IT 

 










Legend :    VFR   Marginal VFR   IFR   Intensive IFR   Very Intensive IFR
Visi :
Ceiling :
>= 8 km
>= 3000ft
5 to 8 km
1000 to 3000 ft
1500m to 5 km
500 to 1000 ft
800 to 1500m
200 to 500 ft
< 800m
< 200 ft
Symbols :   Thunderstorms  Fog  Heavy snow  Heavy precipitations  Wind > 20 kt
SIGMETs :     Misc.  Thunderstorms  Icing  Turbulence  Mountain Waves  Volcanic Ashes







- Airport Elevation : 106 ft
- IATA code : NRN


EDLV - Weeze

CURRENT METAR :
  • 201620Z VRB02KT 9000 -RA BKN012 03/03 Q0999

EXPIRED METARs :
  • 201550Z 14004KT 9000 -RA BKN007 03/03 Q0999
  • 201520Z 13005KT 100V170 9000 -DZ BKN005 03/03 Q0999
  • 201450Z 15005KT 130V190 9000 -DZ BKN006 03/03 Q0999
  • 201420Z 19004KT 150V210 8000 -DZ BKN008 03/03 Q1000
  • 201350Z 19005KT 140V210 9999 -DZ BKN008 04/03 Q1000

TAF AMD TAF EDLV
Valid from the 20 at 14:00 until the 21 at 12:00 UTC


201420Z 2014/2112 14004KT 8000 BKN008
TEMPO 2015/2102 3000 RA BR BKN004
BECMG 2018/2021 33005KT
BECMG 2102/2105 26007KT SCT010 BKN020
No reported NOTAMs for that airfield.
1 SIGMET reported for the Langen FIR (EDGG) :
 
Severe icing
EDGG SIGMET 2 VALID 201400/201800 EDZF
EDGG LANGEN FIR SEV ICE FCST WI N5206 E00755 - N5121 E01028 - N5015 E01016 - N4904 E00756 - N4906 E00756 - N4937 E00622 - N5153 E00608 - N5206 E00755 2000FT/FL160 MOV NE NC=



MET'MAP, your aeronautical weather chart ! - Copyright ORBIFLY December 2007 - Disclaimer

ORBIFLY MET'MAP TEAM :

Programming & Development : Alexandra Zaïnal
Concept & Development : Baudouin d'Aumeries
Co-Development & Prog : Marc-Olivier Méhu
Technical & hardware support : Manuel Goepfert

Contact : metmap@orbifly.com




SOURCES & CREDITS :

   NOAA